Terminal Aerodrome Forecast
Issued by NWS

Home | Current Version | Previous Version | Text Only | Print | Product List | Glossary On
Versions: 1 2 3 4 5 6 7 8 9 10 11 12 13 14 15 16 17 18 19 20 21 22 23 24
741
FTPQ31 PGUM 260533
TAFTYA
TAF
PTYA 260533Z 2606/2706 11008KT P6SM SCT017
     FM261000 VRB05KT P6SM FEW016=

USA.gov is the U.S. government's official web portal to all federal, state and local government web resources and services.